Time;durP1;ratioP1;P1;durP2;ratioP2;P2;SDS_P1;SDS_P2;PMS_P1;PMS_P2;Temp;Humidity;BMP_temperature;BMP_pressure;BME280_temperature;BME280_humidity;BME280_pressure;Samples;Min_cycle;Max_cycle;Signal;HPM_P1;HPM_P2
2022/11/11 00:00:07;;;;;;;11.37;10.27;;;;;;;;;;5071732;28;20444;-75
2022/11/11 00:02:34;;;;;;;13.17;10.17;;;;;;;;;;5068606;28;20468;-76
2022/11/11 00:05:01;;;;;;;13.57;11.00;;;;;;;;;;5051411;28;20456;-76
2022/11/11 00:07:28;;;;;;;11.37;10.37;;;;;;;;;;5051246;28;20442;-75
2022/11/11 00:09:55;;;;;;;13.67;11.03;;;;;;;;;;5051608;28;20452;-75
2022/11/11 00:12:22;;;;;;;12.10;10.90;;;;;;;;;;5051146;28;20466;-75
2022/11/11 00:14:51;;;;;;;12.60;11.40;;;;;;;;;;5050887;28;20523;-75
2022/11/11 00:25:32;;;;;;;12.53;10.53;;;;;;;;;;5071628;28;20416;-75
2022/11/11 00:27:59;;;;;;;12.13;10.33;;;;;;;;;;5071242;28;20944;-75
2022/11/11 00:30:27;;;;;;;11.87;10.77;;;;;;;;;;5068870;28;20455;-76
2022/11/11 00:32:54;;;;;;;12.00;10.27;;;;;;;;;;5070733;28;20464;-75
2022/11/11 00:38:10;;;;;;;13.43;11.17;;;;;;;;;;5079891;28;20858;-76
2022/11/11 00:40:37;;;;;;;11.40;10.17;;;;;;;;;;5081041;28;20750;-75
2022/11/11 00:43:04;;;;;;;14.27;11.50;;;;;;;;;;5084753;28;20467;-75
2022/11/11 00:45:32;;;;;;;10.90;9.73;;;;;;;;;;5091009;28;20442;-75
2022/11/11 00:50:59;;;;;;;13.57;11.53;;;;;;;;;;5079160;28;20420;-75
2022/11/11 00:53:27;;;;;;;12.80;11.50;;;;;;;;;;5080911;28;20463;-75
2022/11/11 00:55:55;;;;;;;12.23;11.13;;;;;;;;;;5081395;28;20447;-75
2022/11/11 00:58:22;;;;;;;13.20;11.73;;;;;;;;;;5084222;28;20461;-75
2022/11/11 01:00:52;;;;;;;14.00;12.60;;;;;;;;;;5091295;28;20436;-74
2022/11/11 01:03:20;;;;;;;12.70;11.37;;;;;;;;;;5090793;28;20492;-75
2022/11/11 01:05:47;;;;;;;13.50;12.10;;;;;;;;;;5089574;28;20433;-75
2022/11/11 01:08:14;;;;;;;12.90;11.60;;;;;;;;;;5076394;28;20441;-76
2022/11/11 01:10:45;;;;;;;12.57;11.30;;;;;;;;;;5076720;28;20799;-75
2022/11/11 01:13:16;;;;;;;12.83;11.20;;;;;;;;;;5077798;28;20464;-75
2022/11/11 01:15:44;;;;;;;13.00;11.60;;;;;;;;;;5082010;28;20543;-75
2022/11/11 01:18:14;;;;;;;11.40;10.30;;;;;;;;;;5082156;28;20484;-75
2022/11/11 01:20:41;;;;;;;13.37;11.30;;;;;;;;;;5085328;28;20434;-75
2022/11/11 01:23:08;;;;;;;14.30;11.47;;;;;;;;;;5079180;28;20851;-75
2022/11/11 01:25:36;;;;;;;12.27;11.17;;;;;;;;;;5080301;28;20456;-75
2022/11/11 01:28:03;;;;;;;11.87;10.10;;;;;;;;;;5080558;28;20439;-75
2022/11/11 01:30:31;;;;;;;10.33;9.20;;;;;;;;;;5081447;28;20846;-75
2022/11/11 01:32:58;;;;;;;10.87;9.77;;;;;;;;;;5080666;28;20466;-75
2022/11/11 01:35:26;;;;;;;14.20;10.50;;;;;;;;;;5075334;28;21018;-74
2022/11/11 01:37:54;;;;;;;11.37;10.33;;;;;;;;;;5070155;28;20472;-74
2022/11/11 01:40:21;;;;;;;10.30;9.20;;;;;;;;;;5070741;28;20452;-75
2022/11/11 01:42:49;;;;;;;10.33;9.27;;;;;;;;;;5072514;28;20484;-75
2022/11/11 01:45:34;;;;;;;11.43;10.33;;;;;;;;;;5077107;28;20437;-75
2022/11/11 01:50:48;;;;;;;11.27;10.27;;;;;;;;;;5095084;28;20460;-75
2022/11/11 01:53:15;;;;;;;11.20;9.43;;;;;;;;;;5096292;28;20446;-74
2022/11/11 01:55:42;;;;;;;11.30;10.10;;;;;;;;;;5092564;28;20449;-75
2022/11/11 01:58:12;;;;;;;11.50;10.40;;;;;;;;;;5080529;28;20992;-75
2022/11/11 02:00:39;;;;;;;12.07;10.87;;;;;;;;;;5081185;28;20461;-75
2022/11/11 02:03:07;;;;;;;13.47;10.10;;;;;;;;;;5076235;28;20744;-74
2022/11/11 02:05:44;;;;;;;14.40;10.23;;;;;;;;;;5065268;28;20443;-75
2022/11/11 02:08:14;;;;;;;11.03;10.00;;;;;;;;;;5065741;28;20428;-75
2022/11/11 02:10:43;;;;;;;11.57;9.90;;;;;;;;;;5067566;28;20447;-73
2022/11/11 02:15:58;;;;;;;12.57;11.27;;;;;;;;;;5075950;28;20423;-74
2022/11/11 02:18:26;;;;;;;12.10;11.03;;;;;;;;;;5067191;28;20482;-74
2022/11/11 02:20:53;;;;;;;11.30;10.23;;;;;;;;;;5065785;28;20498;-74
2022/11/11 02:23:25;;;;;;;11.63;10.50;;;;;;;;;;5070234;28;20499;-74
2022/11/11 02:25:55;;;;;;;13.50;11.20;;;;;;;;;;5076263;28;20452;-76
2022/11/11 02:28:23;;;;;;;69.07;49.57;;;;;;;;;;5088230;28;20434;-75
2022/11/11 02:30:50;;;;;;;28.93;24.80;;;;;;;;;;5067530;28;20443;-75
2022/11/11 02:33:17;;;;;;;19.00;15.73;;;;;;;;;;5067577;28;20451;-74
2022/11/11 02:35:46;;;;;;;14.07;11.87;;;;;;;;;;5057630;28;20454;-75
2022/11/11 02:38:13;;;;;;;12.23;10.60;;;;;;;;;;5070598;28;20474;-75
2022/11/11 02:41:55;;;;;;;12.60;11.30;;;;;;;;;;5054249;28;20452;-75
2022/11/11 02:43:31;;;;;;;12.50;10.03;;;;;;;;;;5064962;28;20458;-75
2022/11/11 02:45:58;;;;;;;13.50;11.00;;;;;;;;;;5057030;28;20442;-74
2022/11/11 02:48:25;;;;;;;11.73;10.53;;;;;;;;;;5077920;28;20447;-75
2022/11/11 02:50:53;;;;;;;11.60;10.60;;;;;;;;;;5071722;28;20448;-74
2022/11/11 02:53:20;;;;;;;12.33;11.17;;;;;;;;;;5070359;28;20472;-74
2022/11/11 02:55:47;;;;;;;12.63;11.53;;;;;;;;;;5081221;28;20440;-75
2022/11/11 02:58:15;;;;;;;11.63;10.63;;;;;;;;;;5065443;28;21008;-74
2022/11/11 03:00:43;;;;;;;12.40;11.20;;;;;;;;;;5056969;28;20893;-75
2022/11/11 03:03:10;;;;;;;13.30;11.60;;;;;;;;;;5058373;28;20907;-75
2022/11/11 03:05:37;;;;;;;13.10;11.80;;;;;;;;;;5062956;28;20486;-76
2022/11/11 03:08:05;;;;;;;12.80;11.00;;;;;;;;;;5061198;28;20429;-76
2022/11/11 03:10:32;;;;;;;12.50;11.20;;;;;;;;;;5060499;28;20445;-75
2022/11/11 03:12:59;;;;;;;12.43;11.23;;;;;;;;;;5057799;28;20472;-74
2022/11/11 03:15:26;;;;;;;13.57;12.17;;;;;;;;;;5060944;28;20444;-75
2022/11/11 03:17:53;;;;;;;12.80;11.70;;;;;;;;;;5057403;28;20469;-76
2022/11/11 03:23:06;;;;;;;13.20;12.00;;;;;;;;;;5059912;28;20816;-75
2022/11/11 03:25:38;;;;;;;13.07;10.53;;;;;;;;;;5061810;28;20435;-75
2022/11/11 03:28:05;;;;;;;11.73;10.63;;;;;;;;;;5067155;28;20413;-74
2022/11/11 03:30:32;;;;;;;12.30;11.17;;;;;;;;;;5058684;28;20446;-75
2022/11/11 03:33:01;;;;;;;12.83;11.60;;;;;;;;;;5069232;28;20467;-76
2022/11/11 03:35:28;;;;;;;13.20;11.20;;;;;;;;;;5074344;28;20437;-75
2022/11/11 03:40:39;;;;;;;12.77;11.13;;;;;;;;;;5067823;28;20912;-75
2022/11/11 03:43:07;;;;;;;13.13;11.77;;;;;;;;;;5074868;28;20457;-74
2022/11/11 03:45:34;;;;;;;13.53;11.03;;;;;;;;;;5072997;28;20441;-74
2022/11/11 03:48:02;;;;;;;13.43;12.10;;;;;;;;;;5073296;28;20438;-75
2022/11/11 03:50:29;;;;;;;12.73;11.43;;;;;;;;;;5072937;28;20954;-74
2022/11/11 03:52:56;;;;;;;14.47;12.07;;;;;;;;;;5070134;28;20970;-75
2022/11/11 03:55:23;;;;;;;13.27;11.90;;;;;;;;;;5070310;28;20439;-76
2022/11/11 03:57:50;;;;;;;12.93;11.70;;;;;;;;;;5052759;28;20477;-73
2022/11/11 04:00:19;;;;;;;13.50;12.20;;;;;;;;;;5063442;28;20441;-75
2022/11/11 04:11:04;;;;;;;12.33;11.07;;;;;;;;;;5072402;28;20416;-75
2022/11/11 04:16:16;;;;;;;12.10;11.07;;;;;;;;;;5054746;28;20472;-74
2022/11/11 04:21:43;;;;;;;11.87;10.70;;;;;;;;;;5034545;28;20532;-75
2022/11/11 04:26:57;;;;;;;14.33;11.10;;;;;;;;;;5065521;28;20401;-75
2022/11/11 04:29:29;;;;;;;13.07;11.87;;;;;;;;;;5070681;28;20463;-75
2022/11/11 04:34:45;;;;;;;14.23;11.83;;;;;;;;;;5063216;28;20494;-74
2022/11/11 04:37:14;;;;;;;12.57;11.47;;;;;;;;;;5055704;28;20446;-75
2022/11/11 04:42:26;;;;;;;15.97;13.10;;;;;;;;;;5051154;28;20441;-75
2022/11/11 04:47:38;;;;;;;12.83;11.63;;;;;;;;;;5051747;28;20957;-74
2022/11/11 04:50:06;;;;;;;13.17;12.00;;;;;;;;;;5065385;28;20437;-75
2022/11/11 04:52:34;;;;;;;12.60;11.37;;;;;;;;;;5058979;28;20565;-75
2022/11/11 04:57:47;;;;;;;12.50;11.20;;;;;;;;;;5059942;28;20777;-74
2022/11/11 05:00:15;;;;;;;13.10;11.90;;;;;;;;;;5052003;28;20767;-75
2022/11/11 05:05:27;;;;;;;14.10;12.10;;;;;;;;;;5063063;28;20553;-75
2022/11/11 05:10:54;;;;;;;13.13;11.30;;;;;;;;;;5016316;28;20456;-76
2022/11/11 05:21:36;;;;;;;12.50;11.23;;;;;;;;;;5051313;28;20413;-74
2022/11/11 05:26:55;;;;;;;14.77;13.33;;;;;;;;;;5016369;28;20620;-74
2022/11/11 05:29:22;;;;;;;14.63;11.53;;;;;;;;;;5071811;28;20432;-75
2022/11/11 05:31:49;;;;;;;12.40;10.57;;;;;;;;;;5058129;28;20445;-74
2022/11/11 05:34:16;;;;;;;12.03;10.60;;;;;;;;;;5062902;28;20453;-75
2022/11/11 05:36:43;;;;;;;12.53;11.33;;;;;;;;;;5066364;28;20545;-74
2022/11/11 05:39:11;;;;;;;12.23;10.77;;;;;;;;;;5071762;28;20476;-76
2022/11/11 05:41:38;;;;;;;11.97;10.63;;;;;;;;;;5064520;28;20448;-75
2022/11/11 05:44:05;;;;;;;12.03;10.93;;;;;;;;;;5054633;28;22020;-75
2022/11/11 05:46:32;;;;;;;11.47;10.37;;;;;;;;;;5071469;28;20483;-75
2022/11/11 05:49:15;;;;;;;11.50;10.30;;;;;;;;;;5052494;28;20441;-75
2022/11/11 05:51:42;;;;;;;11.73;10.30;;;;;;;;;;5064772;28;20758;-75
2022/11/11 05:54:09;;;;;;;11.73;10.60;;;;;;;;;;5072264;28;20608;-76
2022/11/11 05:56:37;;;;;;;12.23;11.13;;;;;;;;;;5071292;28;20452;-75
2022/11/11 05:59:05;;;;;;;12.43;11.23;;;;;;;;;;5063166;28;20480;-75
2022/11/11 06:01:32;;;;;;;11.00;10.00;;;;;;;;;;5065424;28;20447;-73
2022/11/11 06:03:59;;;;;;;11.93;10.93;;;;;;;;;;5070925;28;20968;-75
2022/11/11 06:06:26;;;;;;;12.03;10.83;;;;;;;;;;5070819;28;20467;-75
2022/11/11 06:08:53;;;;;;;11.93;10.73;;;;;;;;;;5069952;28;20441;-75
2022/11/11 06:11:21;;;;;;;11.90;10.80;;;;;;;;;;5070340;28;20497;-75
2022/11/11 06:13:50;;;;;;;12.17;10.87;;;;;;;;;;5070177;28;20471;-74
2022/11/11 06:16:17;;;;;;;12.40;11.30;;;;;;;;;;5071074;28;20441;-75
2022/11/11 06:18:44;;;;;;;13.03;11.73;;;;;;;;;;5071974;28;20483;-75
2022/11/11 06:21:11;;;;;;;11.93;10.83;;;;;;;;;;5071854;28;20786;-75
2022/11/11 06:23:38;;;;;;;11.43;10.23;;;;;;;;;;5070435;28;21018;-74
2022/11/11 06:26:15;;;;;;;12.50;11.10;;;;;;;;;;5076079;28;20445;-74
2022/11/11 06:28:43;;;;;;;12.40;11.20;;;;;;;;;;5078572;28;20425;-74
2022/11/11 06:31:12;;;;;;;12.93;10.47;;;;;;;;;;5073216;28;20940;-74
2022/11/11 06:33:40;;;;;;;12.30;11.00;;;;;;;;;;5071903;28;20467;-75
2022/11/11 06:36:07;;;;;;;13.33;10.60;;;;;;;;;;5071336;28;20807;-75
2022/11/11 06:38:34;;;;;;;12.20;10.97;;;;;;;;;;5071154;28;20476;-74
2022/11/11 06:41:02;;;;;;;11.63;10.23;;;;;;;;;;5074908;28;20459;-76
2022/11/11 06:43:29;;;;;;;10.93;9.77;;;;;;;;;;5073890;28;20464;-75
2022/11/11 06:45:56;;;;;;;10.90;9.80;;;;;;;;;;5073396;28;20523;-74
2022/11/11 06:48:26;;;;;;;11.40;10.40;;;;;;;;;;5073765;28;20444;-75
2022/11/11 06:50:53;;;;;;;11.30;10.17;;;;;;;;;;5074035;28;20448;-76
2022/11/11 06:53:21;;;;;;;11.30;10.30;;;;;;;;;;5074249;28;20475;-76
2022/11/11 06:55:48;;;;;;;11.93;10.73;;;;;;;;;;5073962;28;20444;-75
2022/11/11 06:58:16;;;;;;;11.70;10.50;;;;;;;;;;5073668;28;20440;-76
2022/11/11 07:00:44;;;;;;;14.60;10.60;;;;;;;;;;5073395;28;20460;-75
2022/11/11 07:03:12;;;;;;;11.17;10.07;;;;;;;;;;5073446;28;20460;-75
2022/11/11 07:05:41;;;;;;;13.17;10.23;;;;;;;;;;5074050;28;20451;-75
2022/11/11 07:08:09;;;;;;;11.77;10.57;;;;;;;;;;5076332;28;20444;-75
2022/11/11 07:10:38;;;;;;;11.37;10.27;;;;;;;;;;5074492;28;20939;-75
2022/11/11 07:13:05;;;;;;;11.57;10.37;;;;;;;;;;5072596;28;20470;-75
2022/11/11 07:15:33;;;;;;;12.10;10.80;;;;;;;;;;5073113;28;20518;-75
2022/11/11 07:18:00;;;;;;;14.00;10.30;;;;;;;;;;5073069;28;20464;-75
2022/11/11 07:20:28;;;;;;;15.37;10.73;;;;;;;;;;5072914;28;20486;-75
2022/11/11 07:22:56;;;;;;;11.73;10.37;;;;;;;;;;5072149;28;20491;-74
2022/11/11 07:25:23;;;;;;;13.30;10.80;;;;;;;;;;5073073;28;20444;-74
2022/11/11 07:27:50;;;;;;;10.60;9.60;;;;;;;;;;5072819;28;20442;-75
2022/11/11 07:30:18;;;;;;;11.70;10.03;;;;;;;;;;5072592;28;20441;-74
2022/11/11 07:32:46;;;;;;;11.30;10.20;;;;;;;;;;5073935;28;20478;-76
2022/11/11 07:35:14;;;;;;;11.03;10.00;;;;;;;;;;5073584;28;20441;-75
2022/11/11 07:37:41;;;;;;;11.07;9.90;;;;;;;;;;5072381;28;20975;-74
2022/11/11 07:40:11;;;;;;;10.00;9.00;;;;;;;;;;5073563;28;20488;-75
2022/11/11 07:42:38;;;;;;;11.43;10.10;;;;;;;;;;5072573;28;20468;-74
2022/11/11 07:45:06;;;;;;;11.43;10.27;;;;;;;;;;5072258;28;20944;-76
2022/11/11 07:47:34;;;;;;;10.77;9.77;;;;;;;;;;5072624;28;20452;-76
2022/11/11 07:50:01;;;;;;;10.70;9.60;;;;;;;;;;5071835;28;20850;-74
2022/11/11 07:52:28;;;;;;;11.37;9.40;;;;;;;;;;5071875;28;20469;-74
2022/11/11 07:54:55;;;;;;;10.93;9.83;;;;;;;;;;5072237;28;20450;-75
2022/11/11 07:57:24;;;;;;;11.00;9.90;;;;;;;;;;5072004;28;20448;-76
2022/11/11 07:59:51;;;;;;;11.63;10.23;;;;;;;;;;5072185;28;20488;-76
2022/11/11 08:02:18;;;;;;;11.77;10.30;;;;;;;;;;5071552;28;20444;-75
2022/11/11 08:04:47;;;;;;;11.03;10.03;;;;;;;;;;5071473;28;20945;-75
2022/11/11 08:07:14;;;;;;;14.63;9.23;;;;;;;;;;5072582;28;20532;-75
2022/11/11 08:09:41;;;;;;;10.13;9.30;;;;;;;;;;5073044;28;20447;-76
2022/11/11 08:14:55;;;;;;;9.37;8.67;;;;;;;;;;5069128;28;20417;-74
2022/11/11 08:17:22;;;;;;;9.10;8.47;;;;;;;;;;5071864;28;20443;-75
2022/11/11 08:19:52;;;;;;;11.80;9.27;;;;;;;;;;5071749;28;20478;-74
2022/11/11 08:22:19;;;;;;;10.07;9.07;;;;;;;;;;5071912;28;20442;-75
2022/11/11 08:24:46;;;;;;;9.43;8.63;;;;;;;;;;5071634;28;20464;-75
2022/11/11 08:27:13;;;;;;;9.70;8.70;;;;;;;;;;5075774;28;21000;-75
2022/11/11 08:29:40;;;;;;;9.17;8.37;;;;;;;;;;5072700;28;20795;-75
2022/11/11 08:32:10;;;;;;;10.40;9.33;;;;;;;;;;5071765;28;20448;-75
2022/11/11 08:34:37;;;;;;;10.57;8.13;;;;;;;;;;5073288;28;20444;-75
2022/11/11 08:37:04;;;;;;;8.97;8.17;;;;;;;;;;5072279;28;20449;-76
2022/11/11 08:39:31;;;;;;;8.50;7.80;;;;;;;;;;5072012;28;20482;-75
2022/11/11 08:41:58;;;;;;;9.27;8.37;;;;;;;;;;5072883;28;20944;-76
2022/11/11 08:44:25;;;;;;;8.70;8.10;;;;;;;;;;5072053;28;20985;-75
2022/11/11 08:46:52;;;;;;;9.43;8.53;;;;;;;;;;5072917;28;20476;-75
2022/11/11 08:49:21;;;;;;;11.40;8.97;;;;;;;;;;5075424;28;20436;-75
2022/11/11 08:51:48;;;;;;;9.17;8.37;;;;;;;;;;5076267;28;20448;-75
2022/11/11 08:54:15;;;;;;;9.23;8.43;;;;;;;;;;5073430;28;20464;-75
2022/11/11 08:56:42;;;;;;;9.33;8.50;;;;;;;;;;5076897;28;20447;-75
2022/11/11 08:59:10;;;;;;;8.63;7.93;;;;;;;;;;5073131;28;20518;-76
2022/11/11 09:01:37;;;;;;;10.17;9.17;;;;;;;;;;5074256;28;20550;-76
2022/11/11 09:04:04;;;;;;;9.37;8.47;;;;;;;;;;5070381;28;20465;-75
2022/11/11 09:06:33;;;;;;;9.70;8.60;;;;;;;;;;5071494;28;20451;-75
2022/11/11 09:09:00;;;;;;;8.67;7.80;;;;;;;;;;5064810;28;20448;-76
2022/11/11 09:11:27;;;;;;;9.10;7.70;;;;;;;;;;5065673;28;20454;-74
2022/11/11 09:13:54;;;;;;;9.37;8.40;;;;;;;;;;5067866;28;20909;-75
2022/11/11 09:16:21;;;;;;;8.80;8.00;;;;;;;;;;5070098;28;20444;-75
2022/11/11 09:18:48;;;;;;;8.90;8.00;;;;;;;;;;5070638;28;20441;-75
2022/11/11 09:21:15;;;;;;;9.33;8.53;;;;;;;;;;5081417;28;20448;-76
2022/11/11 09:23:43;;;;;;;9.70;8.70;;;;;;;;;;5071769;28;20468;-75
2022/11/11 09:26:10;;;;;;;9.50;8.70;;;;;;;;;;5071662;28;20944;-77
2022/11/11 09:28:38;;;;;;;9.20;8.30;;;;;;;;;;5073389;28;20805;-74
2022/11/11 09:31:05;;;;;;;9.00;8.20;;;;;;;;;;5057856;28;20445;-76
2022/11/11 09:33:32;;;;;;;9.20;8.40;;;;;;;;;;5067153;28;20464;-75
2022/11/11 09:35:59;;;;;;;9.67;8.63;;;;;;;;;;5071122;28;20440;-76
2022/11/11 09:38:26;;;;;;;9.07;8.17;;;;;;;;;;5070594;28;20441;-76
2022/11/11 09:41:02;;;;;;;10.87;8.63;;;;;;;;;;5070798;28;20473;-77
2022/11/11 09:43:35;;;;;;;9.20;8.50;;;;;;;;;;5070080;28;21321;-75
2022/11/11 09:46:11;;;;;;;8.77;8.07;;;;;;;;;;5070527;28;20451;-75
2022/11/11 09:48:41;;;;;;;8.60;7.30;;;;;;;;;;5070834;28;20429;-76
2022/11/11 09:51:16;;;;;;;9.90;8.90;;;;;;;;;;5087559;28;20425;-74
2022/11/11 09:53:45;;;;;;;8.43;7.73;;;;;;;;;;5096630;28;20450;-75
2022/11/11 09:56:15;;;;;;;9.27;8.20;;;;;;;;;;5096998;28;20429;-74
2022/11/11 09:58:45;;;;;;;10.50;8.97;;;;;;;;;;5095952;28;20404;-74
2022/11/11 10:01:14;;;;;;;13.30;7.93;;;;;;;;;;5081360;28;21022;-75
2022/11/11 10:03:45;;;;;;;8.83;8.13;;;;;;;;;;5072768;28;20464;-74
2022/11/11 10:06:16;;;;;;;9.10;8.40;;;;;;;;;;5070562;28;20435;-76
2022/11/11 10:08:47;;;;;;;9.33;7.77;;;;;;;;;;5069933;28;20811;-74
2022/11/11 10:11:19;;;;;;;8.53;7.60;;;;;;;;;;5070220;28;20437;-74
2022/11/11 10:13:46;;;;;;;8.80;8.13;;;;;;;;;;5070847;28;20468;-74
2022/11/11 10:16:18;;;;;;;8.30;7.60;;;;;;;;;;5075721;28;20441;-76
2022/11/11 10:18:54;;;;;;;8.17;7.40;;;;;;;;;;5075854;28;20796;-76
2022/11/11 10:21:24;;;;;;;8.60;7.67;;;;;;;;;;5076393;28;20540;-76
2022/11/11 10:23:53;;;;;;;7.97;7.07;;;;;;;;;;5072749;28;20842;-76
2022/11/11 10:26:25;;;;;;;10.00;8.53;;;;;;;;;;5076711;28;20448;-76
2022/11/11 10:28:54;;;;;;;10.47;8.50;;;;;;;;;;5073579;28;20421;-75
2022/11/11 10:31:23;;;;;;;8.43;7.63;;;;;;;;;;5068190;28;20436;-76
2022/11/11 10:33:51;;;;;;;10.97;8.30;;;;;;;;;;5075359;28;20464;-75
2022/11/11 10:36:19;;;;;;;8.07;7.40;;;;;;;;;;5074958;28;20447;-77
2022/11/11 10:38:51;;;;;;;8.50;7.63;;;;;;;;;;5074832;28;20437;-76
2022/11/11 10:41:21;;;;;;;9.40;8.10;;;;;;;;;;5074023;28;20471;-75
2022/11/11 10:43:49;;;;;;;10.30;8.10;;;;;;;;;;5074434;28;20465;-75
2022/11/11 10:46:18;;;;;;;8.43;7.67;;;;;;;;;;5074508;28;20444;-74
2022/11/11 10:48:55;;;;;;;9.13;7.97;;;;;;;;;;5074619;28;20444;-76
2022/11/11 10:51:23;;;;;;;8.43;7.67;;;;;;;;;;5083708;28;20452;-75
2022/11/11 10:53:55;;;;;;;11.17;8.47;;;;;;;;;;5082582;28;20471;-76
2022/11/11 10:56:25;;;;;;;9.40;8.50;;;;;;;;;;5077131;28;20445;-75
2022/11/11 10:58:55;;;;;;;10.03;9.13;;;;;;;;;;5075486;28;20440;-76
2022/11/11 11:01:26;;;;;;;9.87;8.93;;;;;;;;;;5074099;28;20457;-76
2022/11/11 11:03:58;;;;;;;10.17;9.23;;;;;;;;;;5073668;28;20469;-75
2022/11/11 11:06:27;;;;;;;10.30;9.30;;;;;;;;;;5073767;28;20451;-76
2022/11/11 11:08:56;;;;;;;10.90;8.63;;;;;;;;;;5076155;28;20831;-75
2022/11/11 11:11:27;;;;;;;8.60;7.70;;;;;;;;;;5075178;28;20963;-75
2022/11/11 11:13:58;;;;;;;9.40;8.33;;;;;;;;;;5075037;28;20461;-75
2022/11/11 11:16:28;;;;;;;8.47;7.67;;;;;;;;;;5078070;28;20429;-76
2022/11/11 11:19:13;;;;;;;8.53;7.50;;;;;;;;;;5076161;28;20464;-75
2022/11/11 11:21:48;;;;;;;10.03;8.70;;;;;;;;;;5074866;28;20488;-76
2022/11/11 11:24:20;;;;;;;9.80;8.80;;;;;;;;;;5086696;28;20478;-75
2022/11/11 11:26:48;;;;;;;8.57;7.77;;;;;;;;;;5083228;28;20423;-75
2022/11/11 11:29:24;;;;;;;9.27;8.30;;;;;;;;;;5079704;28;20964;-76
2022/11/11 11:31:51;;;;;;;11.10;8.90;;;;;;;;;;5075224;28;20444;-75
2022/11/11 11:34:18;;;;;;;12.07;8.53;;;;;;;;;;5075360;28;20547;-75
2022/11/11 11:36:59;;;;;;;9.53;8.37;;;;;;;;;;5076825;28;20440;-75
2022/11/11 11:39:33;;;;;;;8.60;7.90;;;;;;;;;;5078810;28;20561;-75
2022/11/11 11:42:00;;;;;;;12.43;8.93;;;;;;;;;;5080291;28;20436;-77
2022/11/11 11:44:29;;;;;;;10.47;7.80;;;;;;;;;;5081675;28;20500;-77
2022/11/11 11:47:00;;;;;;;8.40;7.60;;;;;;;;;;5079890;28;20441;-76
2022/11/11 11:49:30;;;;;;;10.07;8.50;;;;;;;;;;5079742;28;20433;-76
2022/11/11 11:52:03;;;;;;;15.33;9.43;;;;;;;;;;5092264;28;20432;-76
2022/11/11 11:54:37;;;;;;;9.40;8.50;;;;;;;;;;5088507;28;20524;-75
2022/11/11 11:57:05;;;;;;;10.20;9.20;;;;;;;;;;5075145;28;20437;-76
2022/11/11 11:59:38;;;;;;;8.60;7.80;;;;;;;;;;5071474;28;20444;-76
2022/11/11 12:02:11;;;;;;;10.20;9.20;;;;;;;;;;5072248;28;20427;-76
2022/11/11 12:04:48;;;;;;;12.77;8.50;;;;;;;;;;5072369;28;20441;-75
2022/11/11 12:07:21;;;;;;;9.33;8.50;;;;;;;;;;5073968;28;20445;-76
2022/11/11 12:09:54;;;;;;;11.70;9.10;;;;;;;;;;5071105;28;20448;-75
2022/11/11 12:12:26;;;;;;;9.10;8.33;;;;;;;;;;5073332;28;20451;-76
2022/11/11 12:14:58;;;;;;;9.03;8.23;;;;;;;;;;5073144;28;20963;-75
2022/11/11 12:17:32;;;;;;;10.20;9.30;;;;;;;;;;5073647;28;20438;-76
2022/11/11 12:20:02;;;;;;;9.10;8.30;;;;;;;;;;5072338;28;20429;-75
2022/11/11 12:22:34;;;;;;;11.40;8.50;;;;;;;;;;5073202;28;20456;-75
2022/11/11 12:25:08;;;;;;;8.83;8.13;;;;;;;;;;5073668;28;20435;-76
2022/11/11 12:27:37;;;;;;;62.50;40.90;;;;;;;;;;5073229;28;20422;-77
2022/11/11 12:30:10;;;;;;;36.23;27.43;;;;;;;;;;5072861;28;20441;-76
2022/11/11 12:32:47;;;;;;;11.90;10.70;;;;;;;;;;5071917;28;20579;-77
2022/11/11 12:35:20;;;;;;;13.20;9.90;;;;;;;;;;5070496;28;20920;-76
2022/11/11 12:37:51;;;;;;;11.13;8.43;;;;;;;;;;5072355;28;20444;-76
2022/11/11 12:40:24;;;;;;;9.50;8.67;;;;;;;;;;5074721;28;20534;-76
2022/11/11 12:42:58;;;;;;;9.17;8.27;;;;;;;;;;5095895;28;20527;-76
2022/11/11 12:45:31;;;;;;;9.40;8.40;;;;;;;;;;5096354;28;20428;-76
2022/11/11 12:48:03;;;;;;;9.37;8.57;;;;;;;;;;5095769;28;20500;-75
2022/11/11 12:50:32;;;;;;;8.93;8.10;;;;;;;;;;5089615;28;21045;-75
2022/11/11 12:53:06;;;;;;;8.93;8.23;;;;;;;;;;5071174;28;20457;-75
2022/11/11 12:55:37;;;;;;;8.90;8.20;;;;;;;;;;5071164;28;20440;-75
2022/11/11 12:58:09;;;;;;;9.43;7.40;;;;;;;;;;5069970;28;20424;-74
2022/11/11 13:00:40;;;;;;;13.60;8.83;;;;;;;;;;5071081;28;20491;-75
2022/11/11 13:03:14;;;;;;;8.30;7.60;;;;;;;;;;5070127;28;20465;-75
2022/11/11 13:05:44;;;;;;;9.77;7.83;;;;;;;;;;5070849;28;20971;-74
2022/11/11 13:08:27;;;;;;;35.50;25.97;;;;;;;;;;5070434;28;20455;-76
2022/11/11 13:10:57;;;;;;;11.40;9.27;;;;;;;;;;5068995;28;20488;-76
2022/11/11 13:13:31;;;;;;;10.50;9.40;;;;;;;;;;5070597;28;20787;-76
2022/11/11 13:16:00;;;;;;;8.87;7.97;;;;;;;;;;5070579;28;20459;-76
2022/11/11 13:18:30;;;;;;;7.93;7.23;;;;;;;;;;5071315;28;20444;-76
2022/11/11 13:20:59;;;;;;;8.53;7.73;;;;;;;;;;5070966;28;20487;-76
2022/11/11 13:23:26;;;;;;;9.00;7.60;;;;;;;;;;5070348;28;21003;-76
2022/11/11 13:25:56;;;;;;;8.90;7.17;;;;;;;;;;5071229;28;20449;-75
2022/11/11 13:28:27;;;;;;;9.20;7.40;;;;;;;;;;5071264;28;20452;-75
2022/11/11 13:30:59;;;;;;;8.63;7.83;;;;;;;;;;5071621;28;20441;-75
2022/11/11 13:33:36;;;;;;;8.23;7.20;;;;;;;;;;5071434;28;20551;-74
2022/11/11 13:36:04;;;;;;;11.97;10.63;;;;;;;;;;5071547;28;20460;-75
2022/11/11 13:38:34;;;;;;;10.00;9.00;;;;;;;;;;5071336;28;20471;-75
2022/11/11 13:41:03;;;;;;;8.57;6.73;;;;;;;;;;5071114;28;20824;-75
2022/11/11 13:43:31;;;;;;;6.80;6.30;;;;;;;;;;5070226;28;20474;-76
2022/11/11 13:45:59;;;;;;;6.77;6.27;;;;;;;;;;5069977;28;20955;-75
2022/11/11 13:48:29;;;;;;;7.03;6.37;;;;;;;;;;5069872;28;20441;-76
2022/11/11 13:51:11;;;;;;;6.93;6.23;;;;;;;;;;5070510;28;20471;-76
2022/11/11 13:53:39;;;;;;;6.20;5.70;;;;;;;;;;5070243;28;20464;-76
2022/11/11 13:56:06;;;;;;;7.90;5.37;;;;;;;;;;5070363;28;20816;-75
2022/11/11 13:58:34;;;;;;;6.27;5.27;;;;;;;;;;5070689;28;20448;-76
2022/11/11 14:01:03;;;;;;;6.10;5.50;;;;;;;;;;5071037;28;20484;-74
2022/11/11 14:03:34;;;;;;;6.33;5.13;;;;;;;;;;5072744;28;20479;-75
2022/11/11 14:06:19;;;;;;;5.87;5.37;;;;;;;;;;5075358;28;20872;-75
2022/11/11 14:08:51;;;;;;;5.40;5.00;;;;;;;;;;5078208;28;20538;-74
2022/11/11 14:11:27;;;;;;;6.50;5.00;;;;;;;;;;5080126;28;20441;-77
2022/11/11 14:13:55;;;;;;;6.40;5.50;;;;;;;;;;5077957;28;20467;-75
2022/11/11 14:16:37;;;;;;;4.93;4.53;;;;;;;;;;5073234;28;20519;-74
2022/11/11 14:19:19;;;;;;;6.20;5.27;;;;;;;;;;5072555;28;20444;-76
2022/11/11 14:21:53;;;;;;;5.33;4.83;;;;;;;;;;5087165;28;20606;-76
2022/11/11 14:24:24;;;;;;;7.63;4.93;;;;;;;;;;5074521;28;20476;-75
2022/11/11 14:26:58;;;;;;;5.60;5.10;;;;;;;;;;5093122;28;20436;-75
2022/11/11 14:29:27;;;;;;;6.63;5.17;;;;;;;;;;5095516;28;20425;-76
2022/11/11 14:32:01;;;;;;;5.97;5.10;;;;;;;;;;5095682;28;20423;-75
2022/11/11 14:34:35;;;;;;;5.50;5.00;;;;;;;;;;5095486;28;20500;-75
2022/11/11 14:37:05;;;;;;;5.87;5.27;;;;;;;;;;5095584;28;20487;-74
2022/11/11 14:39:37;;;;;;;10.00;5.40;;;;;;;;;;5095377;28;20428;-75
2022/11/11 14:42:05;;;;;;;6.43;5.80;;;;;;;;;;5091639;28;20479;-75
2022/11/11 14:44:42;;;;;;;6.53;5.83;;;;;;;;;;5083619;28;20424;-75
2022/11/11 14:47:18;;;;;;;7.00;5.00;;;;;;;;;;5082168;28;20436;-75
2022/11/11 14:49:46;;;;;;;6.90;5.60;;;;;;;;;;5073880;28;20440;-75
2022/11/11 14:52:18;;;;;;;6.73;5.93;;;;;;;;;;5070300;28;20456;-75
2022/11/11 14:54:52;;;;;;;8.13;6.13;;;;;;;;;;5070199;28;20935;-75
2022/11/11 14:57:23;;;;;;;6.70;5.90;;;;;;;;;;5070235;28;20502;-75
2022/11/11 14:59:51;;;;;;;6.30;5.70;;;;;;;;;;5070319;28;20440;-75
2022/11/11 15:02:26;;;;;;;6.80;5.50;;;;;;;;;;5072616;28;20480;-75
2022/11/11 15:04:53;;;;;;;6.20;5.60;;;;;;;;;;5073203;28;20441;-75
2022/11/11 15:07:38;;;;;;;6.70;6.00;;;;;;;;;;5073812;28;20451;-75
2022/11/11 15:10:15;;;;;;;5.67;5.07;;;;;;;;;;5073273;28;20539;-75
2022/11/11 15:13:03;;;;;;;7.50;5.10;;;;;;;;;;5073467;28;20462;-76
2022/11/11 15:15:34;;;;;;;6.00;5.40;;;;;;;;;;5047683;28;20459;-75
2022/11/11 15:18:08;;;;;;;6.10;5.50;;;;;;;;;;5073130;28;20461;-76
2022/11/11 15:20:43;;;;;;;6.30;5.67;;;;;;;;;;5073099;28;20458;-76
2022/11/11 15:23:16;;;;;;;8.20;4.87;;;;;;;;;;5073089;28;20487;-75
2022/11/11 15:25:50;;;;;;;9.00;6.53;;;;;;;;;;5074098;28;20908;-76
2022/11/11 15:28:25;;;;;;;8.63;5.77;;;;;;;;;;5082947;28;20435;-76
2022/11/11 15:30:59;;;;;;;7.20;6.50;;;;;;;;;;5082660;28;20947;-76
2022/11/11 15:33:32;;;;;;;8.67;6.23;;;;;;;;;;5075899;28;20461;-75
2022/11/11 15:36:03;;;;;;;24.53;21.63;;;;;;;;;;5075190;28;20440;-76
2022/11/11 15:38:30;;;;;;;11.87;9.27;;;;;;;;;;5074838;28;20974;-76
2022/11/11 15:41:00;;;;;;;10.03;7.53;;;;;;;;;;5073751;28;20474;-76
2022/11/11 15:43:28;;;;;;;7.50;6.90;;;;;;;;;;5073771;28;20457;-76
2022/11/11 15:45:56;;;;;;;7.83;6.67;;;;;;;;;;5073805;28;20443;-76
2022/11/11 15:48:24;;;;;;;13.13;10.90;;;;;;;;;;5074132;28;20460;-75
2022/11/11 15:50:52;;;;;;;8.37;7.57;;;;;;;;;;5073935;28;20447;-75
2022/11/11 15:53:23;;;;;;;7.30;6.60;;;;;;;;;;5073365;28;20814;-75